Glouster Point, Virginia
Current Conditions -  °F | °C
As of 4:54 PM on Monday 22 Dec 2014 (Local Time) from KPHF Reporting Station
Haze Haze  
Wind Chill:   Ceiling: 400
Heat Index:   Visibility: 3mi
Dew Point:   Wind: 7mph
Humidity: 86%   Direction: 350°N
Pressure: 30.06"   Gusts: NA
Location:  37.2577°N, 76.4965°W
Report Text: KPHF 222154Z 35006KT 3SM BR OVC004 08/06 A3006 RMK AO2 RAE2055 SLP179 P0000 T00830061
Loading
Personal Weather Stations






























Interactive Weather Map New forecast layout! Learn more

10-Day Weather Forecast

Advertisements
Track Severe Weather on mobile